sensor_id;sensor_type;location;lat;lon;timestamp;temperature;humidity
9450;DHT22;4763;48.370;10.874;2023-10-09T00:02:13;12.80;99.90
9450;DHT22;4763;48.370;10.874;2023-10-09T00:04:41;12.70;99.90
9450;DHT22;4763;48.370;10.874;2023-10-09T00:07:10;12.70;99.90
9450;DHT22;4763;48.370;10.874;2023-10-09T00:09:38;12.70;99.90
9450;DHT22;4763;48.370;10.874;2023-10-09T00:12:15;12.60;99.90
9450;DHT22;4763;48.370;10.874;2023-10-09T00:14:48;12.50;99.90
9450;DHT22;4763;48.370;10.874;2023-10-09T00:17:16;12.50;99.90
9450;DHT22;4763;48.370;10.874;2023-10-09T00:19:48;12.50;99.90
9450;DHT22;4763;48.370;10.874;2023-10-09T00:22:17;12.40;99.90
9450;DHT22;4763;48.370;10.874;2023-10-09T00:24:55;12.40;99.90
9450;DHT22;4763;48.370;10.874;2023-10-09T00:27:49;12.40;99.90
9450;DHT22;4763;48.370;10.874;2023-10-09T00:30:16;12.30;99.90
9450;DHT22;4763;48.370;10.874;2023-10-09T00:32:45;12.30;99.90
9450;DHT22;4763;48.370;10.874;2023-10-09T00:35:18;12.30;99.90
9450;DHT22;4763;48.370;10.874;2023-10-09T00:38:07;12.30;99.90
9450;DHT22;4763;48.370;10.874;2023-10-09T00:40:41;12.30;99.90
9450;DHT22;4763;48.370;10.874;2023-10-09T00:43:23;12.20;99.90
9450;DHT22;4763;48.370;10.874;2023-10-09T00:45:54;12.20;99.90
9450;DHT22;4763;48.370;10.874;2023-10-09T00:48:20;12.20;99.90
9450;DHT22;4763;48.370;10.874;2023-10-09T00:50:56;12.10;99.90
9450;DHT22;4763;48.370;10.874;2023-10-09T00:53:26;12.10;99.90
9450;DHT22;4763;48.370;10.874;2023-10-09T00:55:57;12.10;99.90
9450;DHT22;4763;48.370;10.874;2023-10-09T00:58:30;12.10;99.90
9450;DHT22;4763;48.370;10.874;2023-10-09T01:01:01;12.10;99.90
9450;DHT22;4763;48.370;10.874;2023-10-09T01:03:30;12.00;99.90
9450;DHT22;4763;48.370;10.874;2023-10-09T01:06:01;12.00;99.90
9450;DHT22;4763;48.370;10.874;2023-10-09T01:08:41;12.00;99.90
9450;DHT22;4763;48.370;10.874;2023-10-09T01:11:14;12.00;99.90
9450;DHT22;4763;48.370;10.874;2023-10-09T01:13:47;12.00;99.90
9450;DHT22;4763;48.370;10.874;2023-10-09T01:16:20;11.90;99.90
9450;DHT22;4763;48.370;10.874;2023-10-09T01:18:49;11.90;99.90
9450;DHT22;4763;48.370;10.874;2023-10-09T01:21:16;11.90;99.90
9450;DHT22;4763;48.370;10.874;2023-10-09T01:23:45;11.90;99.90
9450;DHT22;4763;48.370;10.874;2023-10-09T01:26:28;11.90;99.90
9450;DHT22;4763;48.370;10.874;2023-10-09T01:28:58;11.90;99.90
9450;DHT22;4763;48.370;10.874;2023-10-09T01:31:26;12.00;99.90
9450;DHT22;4763;48.370;10.874;2023-10-09T01:33:53;12.00;99.90
9450;DHT22;4763;48.370;10.874;2023-10-09T01:36:25;12.00;99.90
9450;DHT22;4763;48.370;10.874;2023-10-09T01:38:59;12.00;99.90
9450;DHT22;4763;48.370;10.874;2023-10-09T01:41:27;12.00;99.90
9450;DHT22;4763;48.370;10.874;2023-10-09T01:43:59;12.00;99.90
9450;DHT22;4763;48.370;10.874;2023-10-09T01:46:30;12.00;99.90
9450;DHT22;4763;48.370;10.874;2023-10-09T01:48:59;12.00;99.90
9450;DHT22;4763;48.370;10.874;2023-10-09T01:51:33;11.90;99.90
9450;DHT22;4763;48.370;10.874;2023-10-09T01:54:03;12.00;99.90
9450;DHT22;4763;48.370;10.874;2023-10-09T01:56:30;12.00;99.90
9450;DHT22;4763;48.370;10.874;2023-10-09T01:59:04;12.00;99.90
9450;DHT22;4763;48.370;10.874;2023-10-09T02:01:35;11.90;99.90
9450;DHT22;4763;48.370;10.874;2023-10-09T02:04:08;11.90;99.90
9450;DHT22;4763;48.370;10.874;2023-10-09T02:06:40;11.90;99.90
9450;DHT22;4763;48.370;10.874;2023-10-09T02:09:08;11.90;99.90
9450;DHT22;4763;48.370;10.874;2023-10-09T02:11:45;11.90;99.90
9450;DHT22;4763;48.370;10.874;2023-10-09T02:14:15;11.90;99.90
9450;DHT22;4763;48.370;10.874;2023-10-09T02:16:46;11.90;99.90
9450;DHT22;4763;48.370;10.874;2023-10-09T02:19:29;11.80;99.90
9450;DHT22;4763;48.370;10.874;2023-10-09T02:22:00;11.80;99.90
9450;DHT22;4763;48.370;10.874;2023-10-09T02:24:39;11.80;99.90
9450;DHT22;4763;48.370;10.874;2023-10-09T02:27:17;11.80;99.90
9450;DHT22;4763;48.370;10.874;2023-10-09T02:30:07;11.80;99.90
9450;DHT22;4763;48.370;10.874;2023-10-09T02:32:45;11.80;99.90
9450;DHT22;4763;48.370;10.874;2023-10-09T02:35:15;11.80;99.90
9450;DHT22;4763;48.370;10.874;2023-10-09T02:37:57;11.80;99.90
9450;DHT22;4763;48.370;10.874;2023-10-09T02:40:28;11.70;99.90
9450;DHT22;4763;48.370;10.874;2023-10-09T02:42:58;11.70;99.90
9450;DHT22;4763;48.370;10.874;2023-10-09T02:45:25;11.70;99.90
9450;DHT22;4763;48.370;10.874;2023-10-09T02:47:58;11.70;99.90
9450;DHT22;4763;48.370;10.874;2023-10-09T02:50:25;11.70;99.90
9450;DHT22;4763;48.370;10.874;2023-10-09T02:52:57;11.60;99.90
9450;DHT22;4763;48.370;10.874;2023-10-09T02:55:35;11.60;99.90
9450;DHT22;4763;48.370;10.874;2023-10-09T02:58:04;11.60;99.90
9450;DHT22;4763;48.370;10.874;2023-10-09T03:00:33;11.60;99.90
9450;DHT22;4763;48.370;10.874;2023-10-09T03:03:05;11.60;99.90
9450;DHT22;4763;48.370;10.874;2023-10-09T03:05:33;11.60;99.90
9450;DHT22;4763;48.370;10.874;2023-10-09T03:08:00;11.60;99.90
9450;DHT22;4763;48.370;10.874;2023-10-09T03:10:27;11.60;99.90
9450;DHT22;4763;48.370;10.874;2023-10-09T03:12:55;11.50;99.90
9450;DHT22;4763;48.370;10.874;2023-10-09T03:15:28;11.50;99.90
9450;DHT22;4763;48.370;10.874;2023-10-09T03:18:01;11.50;99.90
9450;DHT22;4763;48.370;10.874;2023-10-09T03:20:28;11.50;99.90
9450;DHT22;4763;48.370;10.874;2023-10-09T03:22:56;11.50;99.90
9450;DHT22;4763;48.370;10.874;2023-10-09T03:25:23;11.50;99.90
9450;DHT22;4763;48.370;10.874;2023-10-09T03:27:54;11.50;99.90
9450;DHT22;4763;48.370;10.874;2023-10-09T03:30:24;11.50;99.90
9450;DHT22;4763;48.370;10.874;2023-10-09T03:32:52;11.50;99.90
9450;DHT22;4763;48.370;10.874;2023-10-09T03:35:19;11.50;99.90
9450;DHT22;4763;48.370;10.874;2023-10-09T03:37:55;11.50;99.90
9450;DHT22;4763;48.370;10.874;2023-10-09T03:40:26;11.50;99.90
9450;DHT22;4763;48.370;10.874;2023-10-09T03:42:55;11.60;99.90
9450;DHT22;4763;48.370;10.874;2023-10-09T03:45:22;11.60;99.90
9450;DHT22;4763;48.370;10.874;2023-10-09T03:47:53;11.60;99.90
9450;DHT22;4763;48.370;10.874;2023-10-09T03:50:28;11.60;99.90
9450;DHT22;4763;48.370;10.874;2023-10-09T03:53:02;11.60;99.90
9450;DHT22;4763;48.370;10.874;2023-10-09T03:55:32;11.60;99.90
9450;DHT22;4763;48.370;10.874;2023-10-09T03:58:00;11.60;99.90
9450;DHT22;4763;48.370;10.874;2023-10-09T04:00:28;11.70;99.90
9450;DHT22;4763;48.370;10.874;2023-10-09T04:02:57;11.80;99.90
9450;DHT22;4763;48.370;10.874;2023-10-09T04:05:24;11.90;99.90
9450;DHT22;4763;48.370;10.874;2023-10-09T04:07:51;11.90;99.90
9450;DHT22;4763;48.370;10.874;2023-10-09T04:10:19;11.90;99.90
9450;DHT22;4763;48.370;10.874;2023-10-09T04:13:05;11.90;99.90
9450;DHT22;4763;48.370;10.874;2023-10-09T04:15:37;11.90;99.90
9450;DHT22;4763;48.370;10.874;2023-10-09T04:18:08;11.90;99.90
9450;DHT22;4763;48.370;10.874;2023-10-09T04:20:40;12.00;99.90
9450;DHT22;4763;48.370;10.874;2023-10-09T04:23:33;12.00;99.90
9450;DHT22;4763;48.370;10.874;2023-10-09T04:26:22;12.00;99.90
9450;DHT22;4763;48.370;10.874;2023-10-09T04:28:52;12.00;99.90
9450;DHT22;4763;48.370;10.874;2023-10-09T04:31:19;12.00;99.90
9450;DHT22;4763;48.370;10.874;2023-10-09T04:33:48;12.20;99.90
9450;DHT22;4763;48.370;10.874;2023-10-09T04:36:23;12.40;99.90
9450;DHT22;4763;48.370;10.874;2023-10-09T04:38:54;12.70;99.90
9450;DHT22;4763;48.370;10.874;2023-10-09T04:41:41;12.80;99.90
9450;DHT22;4763;48.370;10.874;2023-10-09T04:44:19;13.00;99.90
9450;DHT22;4763;48.370;10.874;2023-10-09T04:46:49;13.30;99.90
9450;DHT22;4763;48.370;10.874;2023-10-09T04:49:30;13.30;99.90
9450;DHT22;4763;48.370;10.874;2023-10-09T04:52:11;13.60;99.90
9450;DHT22;4763;48.370;10.874;2023-10-09T04:54:45;13.70;99.90
9450;DHT22;4763;48.370;10.874;2023-10-09T04:57:30;13.80;99.90
9450;DHT22;4763;48.370;10.874;2023-10-09T05:00:06;13.80;99.90
9450;DHT22;4763;48.370;10.874;2023-10-09T05:02:47;13.90;99.90
9450;DHT22;4763;48.370;10.874;2023-10-09T05:05:20;13.90;99.90
9450;DHT22;4763;48.370;10.874;2023-10-09T05:08:15;14.00;99.90
9450;DHT22;4763;48.370;10.874;2023-10-09T05:10:45;14.10;99.90
9450;DHT22;4763;48.370;10.874;2023-10-09T05:13:32;14.10;99.90
9450;DHT22;4763;48.370;10.874;2023-10-09T05:16:12;14.10;99.90
9450;DHT22;4763;48.370;10.874;2023-10-09T05:18:41;14.00;99.90
9450;DHT22;4763;48.370;10.874;2023-10-09T05:21:10;14.10;99.90
9450;DHT22;4763;48.370;10.874;2023-10-09T05:23:51;14.20;99.90
9450;DHT22;4763;48.370;10.874;2023-10-09T05:26:32;14.10;99.90
9450;DHT22;4763;48.370;10.874;2023-10-09T05:29:15;14.30;99.90
9450;DHT22;4763;48.370;10.874;2023-10-09T05:31:46;14.20;99.90
9450;DHT22;4763;48.370;10.874;2023-10-09T05:34:22;14.20;99.90
9450;DHT22;4763;48.370;10.874;2023-10-09T05:36:48;14.20;99.90
9450;DHT22;4763;48.370;10.874;2023-10-09T05:39:15;14.20;99.90
9450;DHT22;4763;48.370;10.874;2023-10-09T05:41:55;14.20;99.90
9450;DHT22;4763;48.370;10.874;2023-10-09T05:44:33;14.30;99.90
9450;DHT22;4763;48.370;10.874;2023-10-09T05:47:19;14.40;99.90
9450;DHT22;4763;48.370;10.874;2023-10-09T05:49:58;14.40;99.90
9450;DHT22;4763;48.370;10.874;2023-10-09T05:52:48;14.40;99.90
9450;DHT22;4763;48.370;10.874;2023-10-09T05:55:33;14.50;99.90
9450;DHT22;4763;48.370;10.874;2023-10-09T05:58:17;14.60;99.90
9450;DHT22;4763;48.370;10.874;2023-10-09T06:01:01;14.60;99.90
9450;DHT22;4763;48.370;10.874;2023-10-09T06:03:47;14.60;99.90
9450;DHT22;4763;48.370;10.874;2023-10-09T06:06:23;14.70;99.90
9450;DHT22;4763;48.370;10.874;2023-10-09T06:09:10;14.80;99.90
9450;DHT22;4763;48.370;10.874;2023-10-09T06:11:51;14.80;99.90
9450;DHT22;4763;48.370;10.874;2023-10-09T06:14:41;14.80;99.90
9450;DHT22;4763;48.370;10.874;2023-10-09T06:17:24;14.80;99.90
9450;DHT22;4763;48.370;10.874;2023-10-09T06:19:54;14.90;99.90
9450;DHT22;4763;48.370;10.874;2023-10-09T06:22:24;15.00;99.90
9450;DHT22;4763;48.370;10.874;2023-10-09T06:25:09;15.10;99.90
9450;DHT22;4763;48.370;10.874;2023-10-09T06:27:37;15.00;99.90
9450;DHT22;4763;48.370;10.874;2023-10-09T06:30:23;15.10;99.90
9450;DHT22;4763;48.370;10.874;2023-10-09T06:32:50;15.00;99.90
9450;DHT22;4763;48.370;10.874;2023-10-09T06:35:24;15.10;99.90
9450;DHT22;4763;48.370;10.874;2023-10-09T06:37:58;15.20;99.90
9450;DHT22;4763;48.370;10.874;2023-10-09T06:40:48;15.10;99.90
9450;DHT22;4763;48.370;10.874;2023-10-09T06:43:32;15.10;99.90
9450;DHT22;4763;48.370;10.874;2023-10-09T06:46:02;15.10;99.90
9450;DHT22;4763;48.370;10.874;2023-10-09T06:48:47;15.20;99.90
9450;DHT22;4763;48.370;10.874;2023-10-09T06:51:23;15.20;99.90
9450;DHT22;4763;48.370;10.874;2023-10-09T06:54:07;15.30;99.90
9450;DHT22;4763;48.370;10.874;2023-10-09T06:56:43;15.30;99.90
9450;DHT22;4763;48.370;10.874;2023-10-09T06:59:28;15.40;99.90
9450;DHT22;4763;48.370;10.874;2023-10-09T07:02:07;15.40;99.90
9450;DHT22;4763;48.370;10.874;2023-10-09T07:04:51;15.60;99.90
9450;DHT22;4763;48.370;10.874;2023-10-09T07:07:22;15.60;99.90
9450;DHT22;4763;48.370;10.874;2023-10-09T07:09:51;15.70;99.90
9450;DHT22;4763;48.370;10.874;2023-10-09T07:12:35;15.70;99.90
9450;DHT22;4763;48.370;10.874;2023-10-09T07:15:08;15.80;99.90
9450;DHT22;4763;48.370;10.874;2023-10-09T07:17:52;15.80;99.90
9450;DHT22;4763;48.370;10.874;2023-10-09T07:20:20;16.00;99.90
9450;DHT22;4763;48.370;10.874;2023-10-09T07:23:04;16.10;99.90
9450;DHT22;4763;48.370;10.874;2023-10-09T07:25:39;16.30;99.90
9450;DHT22;4763;48.370;10.874;2023-10-09T07:28:21;16.50;99.90
9450;DHT22;4763;48.370;10.874;2023-10-09T07:31:08;16.60;99.90
9450;DHT22;4763;48.370;10.874;2023-10-09T07:33:50;16.70;99.90
9450;DHT22;4763;48.370;10.874;2023-10-09T07:36:46;16.80;99.90
9450;DHT22;4763;48.370;10.874;2023-10-09T07:39:16;16.90;99.90
9450;DHT22;4763;48.370;10.874;2023-10-09T07:41:43;16.90;99.90
9450;DHT22;4763;48.370;10.874;2023-10-09T07:44:27;17.00;99.90
9450;DHT22;4763;48.370;10.874;2023-10-09T07:47:03;17.00;99.90
9450;DHT22;4763;48.370;10.874;2023-10-09T07:49:49;17.10;99.90
9450;DHT22;4763;48.370;10.874;2023-10-09T07:52:20;17.20;99.90
9450;DHT22;4763;48.370;10.874;2023-10-09T07:54:52;17.30;99.90
9450;DHT22;4763;48.370;10.874;2023-10-09T07:57:32;17.40;99.90
9450;DHT22;4763;48.370;10.874;2023-10-09T08:00:06;17.50;99.90
9450;DHT22;4763;48.370;10.874;2023-10-09T08:03:00;17.60;99.90
9450;DHT22;4763;48.370;10.874;2023-10-09T08:05:28;17.70;99.90
9450;DHT22;4763;48.370;10.874;2023-10-09T08:07:59;17.70;99.90
9450;DHT22;4763;48.370;10.874;2023-10-09T08:10:45;17.70;99.90
9450;DHT22;4763;48.370;10.874;2023-10-09T08:13:30;17.70;99.90
9450;DHT22;4763;48.370;10.874;2023-10-09T08:16:14;17.70;99.90
9450;DHT22;4763;48.370;10.874;2023-10-09T08:18:47;17.70;99.90
9450;DHT22;4763;48.370;10.874;2023-10-09T08:21:16;17.70;99.90
9450;DHT22;4763;48.370;10.874;2023-10-09T08:24:03;17.70;99.90
9450;DHT22;4763;48.370;10.874;2023-10-09T08:26:31;17.70;99.90
9450;DHT22;4763;48.370;10.874;2023-10-09T08:29:12;17.70;99.90
9450;DHT22;4763;48.370;10.874;2023-10-09T08:31:43;17.80;99.90
9450;DHT22;4763;48.370;10.874;2023-10-09T08:34:22;17.80;99.90
9450;DHT22;4763;48.370;10.874;2023-10-09T08:36:53;17.90;99.90
9450;DHT22;4763;48.370;10.874;2023-10-09T08:39:20;17.90;99.90
9450;DHT22;4763;48.370;10.874;2023-10-09T08:41:55;18.00;99.90
9450;DHT22;4763;48.370;10.874;2023-10-09T08:44:24;18.10;99.90
9450;DHT22;4763;48.370;10.874;2023-10-09T08:46:54;18.10;99.90
9450;DHT22;4763;48.370;10.874;2023-10-09T08:49:23;18.20;99.90
9450;DHT22;4763;48.370;10.874;2023-10-09T08:51:50;18.20;99.90
9450;DHT22;4763;48.370;10.874;2023-10-09T08:54:19;18.30;99.90
9450;DHT22;4763;48.370;10.874;2023-10-09T08:56:46;18.40;99.90
9450;DHT22;4763;48.370;10.874;2023-10-09T08:59:17;18.40;99.90
9450;DHT22;4763;48.370;10.874;2023-10-09T09:01:48;18.60;99.90
9450;DHT22;4763;48.370;10.874;2023-10-09T09:04:36;18.60;99.90
9450;DHT22;4763;48.370;10.874;2023-10-09T09:07:04;18.70;99.90
9450;DHT22;4763;48.370;10.874;2023-10-09T09:09:31;18.80;99.90
9450;DHT22;4763;48.370;10.874;2023-10-09T09:11:59;18.80;99.90
9450;DHT22;4763;48.370;10.874;2023-10-09T09:14:37;18.90;99.90
9450;DHT22;4763;48.370;10.874;2023-10-09T09:17:04;19.00;99.90
9450;DHT22;4763;48.370;10.874;2023-10-09T09:19:37;19.00;99.90
9450;DHT22;4763;48.370;10.874;2023-10-09T09:22:04;19.00;99.90
9450;DHT22;4763;48.370;10.874;2023-10-09T09:24:39;19.00;99.90
9450;DHT22;4763;48.370;10.874;2023-10-09T09:27:11;19.10;99.90
9450;DHT22;4763;48.370;10.874;2023-10-09T09:29:45;19.10;99.90
9450;DHT22;4763;48.370;10.874;2023-10-09T09:32:27;19.20;99.90
9450;DHT22;4763;48.370;10.874;2023-10-09T09:34:55;19.30;99.90
9450;DHT22;4763;48.370;10.874;2023-10-09T09:37:29;19.30;99.90
9450;DHT22;4763;48.370;10.874;2023-10-09T09:39:58;19.40;99.90
9450;DHT22;4763;48.370;10.874;2023-10-09T09:42:27;19.50;99.90
9450;DHT22;4763;48.370;10.874;2023-10-09T09:44:59;19.50;99.90
9450;DHT22;4763;48.370;10.874;2023-10-09T09:47:27;19.60;99.90
9450;DHT22;4763;48.370;10.874;2023-10-09T09:49:55;19.60;99.90
9450;DHT22;4763;48.370;10.874;2023-10-09T09:52:28;19.70;99.90
9450;DHT22;4763;48.370;10.874;2023-10-09T09:54:55;19.70;99.90
9450;DHT22;4763;48.370;10.874;2023-10-09T09:57:23;19.80;99.90
9450;DHT22;4763;48.370;10.874;2023-10-09T09:59:53;19.80;99.90
9450;DHT22;4763;48.370;10.874;2023-10-09T10:02:28;19.90;99.90
9450;DHT22;4763;48.370;10.874;2023-10-09T10:05:02;19.90;99.90
9450;DHT22;4763;48.370;10.874;2023-10-09T10:07:31;19.90;99.90
9450;DHT22;4763;48.370;10.874;2023-10-09T10:10:33;20.10;99.90
9450;DHT22;4763;48.370;10.874;2023-10-09T10:13:03;20.20;99.90
9450;DHT22;4763;48.370;10.874;2023-10-09T10:15:57;20.20;99.90
9450;DHT22;4763;48.370;10.874;2023-10-09T10:18:30;20.30;99.90
9450;DHT22;4763;48.370;10.874;2023-10-09T10:21:11;20.30;99.90
9450;DHT22;4763;48.370;10.874;2023-10-09T10:23:42;20.40;99.90
9450;DHT22;4763;48.370;10.874;2023-10-09T10:26:19;20.50;99.90
9450;DHT22;4763;48.370;10.874;2023-10-09T10:29:15;20.60;99.90
9450;DHT22;4763;48.370;10.874;2023-10-09T10:31:52;20.80;99.90
9450;DHT22;4763;48.370;10.874;2023-10-09T10:34:22;20.90;99.90
9450;DHT22;4763;48.370;10.874;2023-10-09T10:36:50;21.00;99.90
9450;DHT22;4763;48.370;10.874;2023-10-09T10:39:24;21.00;99.90
9450;DHT22;4763;48.370;10.874;2023-10-09T10:42:08;21.20;99.90
9450;DHT22;4763;48.370;10.874;2023-10-09T10:44:41;21.20;99.90
9450;DHT22;4763;48.370;10.874;2023-10-09T10:47:11;21.20;99.90
9450;DHT22;4763;48.370;10.874;2023-10-09T10:49:53;21.20;99.90
9450;DHT22;4763;48.370;10.874;2023-10-09T10:52:25;21.30;99.90
9450;DHT22;4763;48.370;10.874;2023-10-09T10:55:08;21.30;99.90
9450;DHT22;4763;48.370;10.874;2023-10-09T10:57:44;21.30;99.90
9450;DHT22;4763;48.370;10.874;2023-10-09T11:00:26;21.40;99.90
9450;DHT22;4763;48.370;10.874;2023-10-09T11:03:17;21.50;99.90
9450;DHT22;4763;48.370;10.874;2023-10-09T11:05:50;21.60;99.90
9450;DHT22;4763;48.370;10.874;2023-10-09T11:08:18;21.70;99.90
9450;DHT22;4763;48.370;10.874;2023-10-09T11:10:49;21.80;99.90
9450;DHT22;4763;48.370;10.874;2023-10-09T11:13:23;21.70;99.90
9450;DHT22;4763;48.370;10.874;2023-10-09T11:15:56;21.60;99.90
9450;DHT22;4763;48.370;10.874;2023-10-09T11:18:40;21.60;99.90
9450;DHT22;4763;48.370;10.874;2023-10-09T11:21:13;21.60;99.90
9450;DHT22;4763;48.370;10.874;2023-10-09T11:23:58;21.50;99.90
9450;DHT22;4763;48.370;10.874;2023-10-09T11:26:35;21.50;99.90
9450;DHT22;4763;48.370;10.874;2023-10-09T11:29:09;21.50;99.90
9450;DHT22;4763;48.370;10.874;2023-10-09T11:32:02;21.50;99.90
9450;DHT22;4763;48.370;10.874;2023-10-09T11:34:30;21.50;99.90
9450;DHT22;4763;48.370;10.874;2023-10-09T11:37:01;21.50;99.90
9450;DHT22;4763;48.370;10.874;2023-10-09T11:39:29;21.60;99.90
9450;DHT22;4763;48.370;10.874;2023-10-09T11:42:05;21.60;99.90
9450;DHT22;4763;48.370;10.874;2023-10-09T11:44:38;21.60;99.90
9450;DHT22;4763;48.370;10.874;2023-10-09T11:47:06;21.60;99.90
9450;DHT22;4763;48.370;10.874;2023-10-09T11:49:58;21.60;99.90
9450;DHT22;4763;48.370;10.874;2023-10-09T11:52:57;21.50;99.90
9450;DHT22;4763;48.370;10.874;2023-10-09T11:55:43;21.50;99.90
9450;DHT22;4763;48.370;10.874;2023-10-09T11:58:14;21.50;99.90
9450;DHT22;4763;48.370;10.874;2023-10-09T12:00:50;21.40;99.90
9450;DHT22;4763;48.370;10.874;2023-10-09T12:03:23;21.40;99.90
9450;DHT22;4763;48.370;10.874;2023-10-09T12:05:54;21.40;99.90
9450;DHT22;4763;48.370;10.874;2023-10-09T12:08:23;21.30;99.90
9450;DHT22;4763;48.370;10.874;2023-10-09T12:10:52;21.20;99.90
9450;DHT22;4763;48.370;10.874;2023-10-09T12:13:20;21.20;99.90
9450;DHT22;4763;48.370;10.874;2023-10-09T12:15:48;21.10;99.90
9450;DHT22;4763;48.370;10.874;2023-10-09T12:18:19;21.00;99.90
9450;DHT22;4763;48.370;10.874;2023-10-09T12:20:47;21.00;99.90
9450;DHT22;4763;48.370;10.874;2023-10-09T12:23:17;21.00;99.90
9450;DHT22;4763;48.370;10.874;2023-10-09T12:25:47;21.00;99.90
9450;DHT22;4763;48.370;10.874;2023-10-09T12:28:15;21.00;99.90
9450;DHT22;4763;48.370;10.874;2023-10-09T12:30:45;21.00;99.90
9450;DHT22;4763;48.370;10.874;2023-10-09T12:33:16;21.00;99.90
9450;DHT22;4763;48.370;10.874;2023-10-09T12:35:43;21.00;99.90
9450;DHT22;4763;48.370;10.874;2023-10-09T12:38:11;21.10;99.90
9450;DHT22;4763;48.370;10.874;2023-10-09T12:40:45;21.10;99.90
9450;DHT22;4763;48.370;10.874;2023-10-09T12:43:17;21.10;99.90
9450;DHT22;4763;48.370;10.874;2023-10-09T12:45:45;21.10;99.90
9450;DHT22;4763;48.370;10.874;2023-10-09T12:48:11;21.10;99.90
9450;DHT22;4763;48.370;10.874;2023-10-09T12:50:40;21.10;99.90
9450;DHT22;4763;48.370;10.874;2023-10-09T12:53:11;21.20;99.90
9450;DHT22;4763;48.370;10.874;2023-10-09T12:55:43;21.20;99.90
9450;DHT22;4763;48.370;10.874;2023-10-09T12:58:12;21.20;99.90
9450;DHT22;4763;48.370;10.874;2023-10-09T13:00:42;21.10;99.90
9450;DHT22;4763;48.370;10.874;2023-10-09T13:03:14;21.10;99.90
9450;DHT22;4763;48.370;10.874;2023-10-09T13:05:48;21.10;99.90
9450;DHT22;4763;48.370;10.874;2023-10-09T13:08:26;21.00;99.90
9450;DHT22;4763;48.370;10.874;2023-10-09T13:11:02;20.90;99.90
9450;DHT22;4763;48.370;10.874;2023-10-09T13:13:40;20.80;99.90
9450;DHT22;4763;48.370;10.874;2023-10-09T13:16:10;20.70;99.90
9450;DHT22;4763;48.370;10.874;2023-10-09T13:18:40;20.60;99.90
9450;DHT22;4763;48.370;10.874;2023-10-09T13:21:07;20.40;99.90
9450;DHT22;4763;48.370;10.874;2023-10-09T13:23:35;20.30;99.90
9450;DHT22;4763;48.370;10.874;2023-10-09T13:26:12;20.20;99.90
9450;DHT22;4763;48.370;10.874;2023-10-09T13:28:51;20.10;99.90
9450;DHT22;4763;48.370;10.874;2023-10-09T13:31:19;20.20;99.90
9450;DHT22;4763;48.370;10.874;2023-10-09T13:33:49;20.10;99.90
9450;DHT22;4763;48.370;10.874;2023-10-09T13:36:20;20.20;99.90
9450;DHT22;4763;48.370;10.874;2023-10-09T13:38:53;20.20;99.90
9450;DHT22;4763;48.370;10.874;2023-10-09T13:41:21;20.20;99.90
9450;DHT22;4763;48.370;10.874;2023-10-09T13:43:52;20.20;99.90
9450;DHT22;4763;48.370;10.874;2023-10-09T13:46:19;20.20;99.90
9450;DHT22;4763;48.370;10.874;2023-10-09T13:48:46;20.10;99.90
9450;DHT22;4763;48.370;10.874;2023-10-09T13:51:14;20.10;99.90
9450;DHT22;4763;48.370;10.874;2023-10-09T13:53:43;20.10;99.90
9450;DHT22;4763;48.370;10.874;2023-10-09T13:56:17;20.10;99.90
9450;DHT22;4763;48.370;10.874;2023-10-09T13:58:48;20.00;99.90
9450;DHT22;4763;48.370;10.874;2023-10-09T14:01:17;20.00;99.90
9450;DHT22;4763;48.370;10.874;2023-10-09T14:03:54;20.10;99.90
9450;DHT22;4763;48.370;10.874;2023-10-09T14:06:23;20.10;99.90
9450;DHT22;4763;48.370;10.874;2023-10-09T14:08:57;20.10;99.90
9450;DHT22;4763;48.370;10.874;2023-10-09T14:11:25;20.10;99.90
9450;DHT22;4763;48.370;10.874;2023-10-09T14:13:55;20.10;99.90
9450;DHT22;4763;48.370;10.874;2023-10-09T14:16:23;20.30;99.90
9450;DHT22;4763;48.370;10.874;2023-10-09T14:18:57;20.30;99.90
9450;DHT22;4763;48.370;10.874;2023-10-09T14:21:27;20.40;99.90
9450;DHT22;4763;48.370;10.874;2023-10-09T14:23:55;20.50;99.90
9450;DHT22;4763;48.370;10.874;2023-10-09T14:26:24;20.50;99.90
9450;DHT22;4763;48.370;10.874;2023-10-09T14:28:55;20.50;99.90
9450;DHT22;4763;48.370;10.874;2023-10-09T14:31:24;20.50;99.90
9450;DHT22;4763;48.370;10.874;2023-10-09T14:33:54;20.50;99.90
9450;DHT22;4763;48.370;10.874;2023-10-09T14:36:20;20.50;99.90
9450;DHT22;4763;48.370;10.874;2023-10-09T14:38:49;20.50;99.90
9450;DHT22;4763;48.370;10.874;2023-10-09T14:41:19;20.50;99.90
9450;DHT22;4763;48.370;10.874;2023-10-09T14:43:49;20.50;99.90
9450;DHT22;4763;48.370;10.874;2023-10-09T14:46:16;20.40;99.90
9450;DHT22;4763;48.370;10.874;2023-10-09T14:48:50;20.40;99.90
9450;DHT22;4763;48.370;10.874;2023-10-09T14:51:19;20.40;99.90
9450;DHT22;4763;48.370;10.874;2023-10-09T14:53:55;20.40;99.90
9450;DHT22;4763;48.370;10.874;2023-10-09T14:56:25;20.40;99.90
9450;DHT22;4763;48.370;10.874;2023-10-09T14:58:56;20.40;99.90
9450;DHT22;4763;48.370;10.874;2023-10-09T15:01:24;20.40;99.90
9450;DHT22;4763;48.370;10.874;2023-10-09T15:03:52;20.40;99.90
9450;DHT22;4763;48.370;10.874;2023-10-09T15:06:21;20.30;99.90
9450;DHT22;4763;48.370;10.874;2023-10-09T15:08:49;20.30;99.90
9450;DHT22;4763;48.370;10.874;2023-10-09T15:11:16;20.30;99.90
9450;DHT22;4763;48.370;10.874;2023-10-09T15:13:42;20.30;99.90
9450;DHT22;4763;48.370;10.874;2023-10-09T15:16:09;20.20;99.90
9450;DHT22;4763;48.370;10.874;2023-10-09T15:18:37;20.20;99.90
9450;DHT22;4763;48.370;10.874;2023-10-09T15:21:05;20.20;99.90
9450;DHT22;4763;48.370;10.874;2023-10-09T15:23:34;20.20;99.90
9450;DHT22;4763;48.370;10.874;2023-10-09T15:26:04;20.20;99.90
9450;DHT22;4763;48.370;10.874;2023-10-09T15:28:32;20.10;99.90
9450;DHT22;4763;48.370;10.874;2023-10-09T15:30:59;20.10;99.90
9450;DHT22;4763;48.370;10.874;2023-10-09T15:33:25;20.10;99.90
9450;DHT22;4763;48.370;10.874;2023-10-09T15:35:56;20.10;99.90
9450;DHT22;4763;48.370;10.874;2023-10-09T15:38:25;20.10;99.90
9450;DHT22;4763;48.370;10.874;2023-10-09T15:40:54;20.00;99.90
9450;DHT22;4763;48.370;10.874;2023-10-09T15:43:21;20.00;99.90
9450;DHT22;4763;48.370;10.874;2023-10-09T15:45:50;20.00;99.90
9450;DHT22;4763;48.370;10.874;2023-10-09T15:48:17;19.90;99.90
9450;DHT22;4763;48.370;10.874;2023-10-09T15:50:47;19.90;99.90
9450;DHT22;4763;48.370;10.874;2023-10-09T15:53:17;19.90;99.90
9450;DHT22;4763;48.370;10.874;2023-10-09T15:55:45;19.80;99.90
9450;DHT22;4763;48.370;10.874;2023-10-09T15:58:17;19.90;99.90
9450;DHT22;4763;48.370;10.874;2023-10-09T16:00:44;19.90;99.90
9450;DHT22;4763;48.370;10.874;2023-10-09T16:03:11;19.80;99.90
9450;DHT22;4763;48.370;10.874;2023-10-09T16:05:43;19.80;99.90
9450;DHT22;4763;48.370;10.874;2023-10-09T16:08:12;19.80;99.90
9450;DHT22;4763;48.370;10.874;2023-10-09T16:10:39;19.80;99.90
9450;DHT22;4763;48.370;10.874;2023-10-09T16:13:07;19.80;99.90
9450;DHT22;4763;48.370;10.874;2023-10-09T16:15:40;19.80;99.90
9450;DHT22;4763;48.370;10.874;2023-10-09T16:18:08;19.80;99.90
9450;DHT22;4763;48.370;10.874;2023-10-09T16:20:36;19.70;99.90
9450;DHT22;4763;48.370;10.874;2023-10-09T16:23:03;19.70;99.90
9450;DHT22;4763;48.370;10.874;2023-10-09T16:25:30;19.60;99.90